Map

Track Data

SID SEASON NUMBER BASIN SUBBASIN NAME ISO_TIME NATURE LAT LON WMO_WIND WMO_PRES WMO_AGENCY TRACK_TYPE DIST2LAND LANDFALL IFLAG USA_AGENCY USA_ATCF_ID USA_LAT USA_LON USA_RECORD USA_STATUS USA_WIND USA_PRES USA_SSHS USA_R34_NE USA_R34_SE USA_R34_SW USA_R34_NW USA_R50_NE USA_R50_SE USA_R50_SW USA_R50_NW USA_R64_NE USA_R64_SE USA_R64_SW USA_R64_NW USA_POCI USA_ROCI USA_RMW USA_EYE TOKYO_LAT TOKYO_LON TOKYO_GRADE TOKYO_WIND TOKYO_PRES TOKYO_R50_DIR TOKYO_R50_LONG TOKYO_R50_SHORT TOKYO_R30_DIR TOKYO_R30_LONG TOKYO_R30_SHORT TOKYO_LAND CMA_LAT CMA_LON CMA_CAT CMA_WIND CMA_PRES HKO_LAT HKO_LON HKO_CAT HKO_WIND HKO_PRES NEWDELHI_LAT NEWDELHI_LON NEWDELHI_GRADE NEWDELHI_WIND NEWDELHI_PRES NEWDELHI_CI NEWDELHI_DP NEWDELHI_POCI REUNION_LAT REUNION_LON REUNION_TYPE REUNION_WIND REUNION_PRES REUNION_TNUM REUNION_CI REUNION_RMW REUNION_R34_NE REUNION_R34_SE REUNION_R34_SW REUNION_R34_NW REUNION_R50_NE REUNION_R50_SE REUNION_R50_SW REUNION_R50_NW REUNION_R64_NE REUNION_R64_SE REUNION_R64_SW REUNION_R64_NW BOM_LAT BOM_LON BOM_TYPE BOM_WIND BOM_PRES BOM_TNUM BOM_CI BOM_RMW BOM_R34_NE BOM_R34_SE BOM_R34_SW BOM_R34_NW BOM_R50_NE BOM_R50_SE BOM_R50_SW BOM_R50_NW BOM_R64_NE BOM_R64_SE BOM_R64_SW BOM_R64_NW BOM_ROCI BOM_POCI BOM_EYE BOM_POS_METHOD BOM_PRES_METHOD NADI_LAT NADI_LON NADI_CAT NADI_WIND NADI_PRES WELLINGTON_LAT WELLINGTON_LON WELLINGTON_WIND WELLINGTON_PRES DS824_LAT DS824_LON DS824_STAGE DS824_WIND DS824_PRES TD9636_LAT TD9636_LON TD9636_STAGE TD9636_WIND TD9636_PRES TD9635_LAT TD9635_LON TD9635_WIND TD9635_PRES TD9635_ROCI NEUMANN_LAT NEUMANN_LON NEUMANN_CLASS NEUMANN_WIND NEUMANN_PRES MLC_LAT MLC_LON MLC_CLASS MLC_WIND MLC_PRES USA_GUST BOM_GUST BOM_GUST_PER REUNION_GUST REUNION_GUST_PER USA_SEAHGT USA_SEARAD_NE USA_SEARAD_SE USA_SEARAD_SW USA_SEARAD_NW STORM_SPEED STORM_DIR
1989006S15044 1989 3 SI MM CALASANJY 1989-01-06 06:00:00 TS -14.8000 44.1000 main 170 149 O_________O_O_ jtwc_sh SH061989 -14.8000 44.1000 25 -1 -14.8000 44.1000 1 25 -14.8000 44.1000 TC 25 4 195
1989006S15044 1989 3 SI MM CALASANJY 1989-01-06 09:00:00 TS -14.9989 44.0497 main 151 130 P_________P_P_ SH061989 -14.9950 44.0500 25 -1 -15.0068 44.0492 1 25 -14.9950 44.0500 TC 25 4 193
1989006S15044 1989 3 SI MM CALASANJY 1989-01-06 12:00:00 TS -15.2000 44.0000 main 130 109 O_________O_O_ jtwc_sh SH061989 -15.2000 44.0000 25 -1 -15.2000 44.0000 1 25 -15.2000 44.0000 TC 25 4 194
1989006S15044 1989 3 SI MM CALASANJY 1989-01-06 15:00:00 TS -15.3999 43.9511 main 109 94 P_________P_P_ SH061989 -15.4150 43.9500 25 -1 -15.3696 43.9534 1 25 -15.4150 43.9500 TC 25 4 194
1989006S15044 1989 3 SI MM CALASANJY 1989-01-06 18:00:00 TS -15.5735 43.9023 main 94 85 O_________P_O_ jtwc_sh SH061989 -15.6000 43.9000 25 -1 -15.5204 43.9067 1 25 -15.6000 43.9000 TC 25 3 199
1989006S15044 1989 3 SI MM CALASANJY 1989-01-06 21:00:00 TS -15.6920 43.8522 main 85 85 P_________P_P_ SH061989 -15.7075 43.8500 25 -1 -15.6611 43.8568 1 25 -15.7075 43.8500 TC 25 2 204
1989006S15044 1989 3 SI MM CALASANJY 1989-01-07 00:00:00 TS -15.8000 43.8000 main 85 78 O_________O_O_ jtwc_sh SH061989 -15.8000 43.8000 25 -1 -15.8000 43.8000 1 25 -15.8000 43.8000 TC 25 3 201
1989006S15044 1989 3 SI MM CALASANJY 1989-01-07 03:00:00 TS -15.9477 43.7477 main 87 78 P_________P_P_ SH061989 -15.9425 43.7575 25 -1 -15.9581 43.7282 1 25 -15.9425 43.7575 TC 25 3 200
1989006S15044 1989 3 SI MM CALASANJY 1989-01-07 06:00:00 TS -16.1050 43.6833 main 78 75 O_________P_O_ jtwc_sh SH061989 -16.1000 43.7000 25 -1 -16.1150 43.6501 1 25 -16.1000 43.7000 TC 25 3 205
1989006S15044 1989 3 SI MM CALASANJY 1989-01-07 09:00:00 TS -16.2598 43.5956 main 85 85 P_________P_P_ SH061989 -16.2575 43.6075 25 -1 -16.2644 43.5719 1 25 -16.2575 43.6075 TC 25 3 211
1989006S15044 1989 3 SI MM CALASANJY 1989-01-07 12:00:00 TS -16.4000 43.5000 main 96 95 O_________O_O_ jtwc_sh SH061989 -16.4000 43.5000 25 -1 -16.4000 43.5000 1 25 -16.4000 43.5000 TC 25 3 216
1989006S15044 1989 3 SI MM CALASANJY 1989-01-07 15:00:00 TS -16.5111 43.4083 main 105 100 P_________P_P_ SH061989 -16.5075 43.3850 25 -1 -16.5184 43.4549 1 25 -16.5075 43.3850 TC 25 3 216
1989006S15044 1989 3 SI MM CALASANJY 1989-01-07 18:00:00 TS -16.6075 43.3383 main 108 101 O_________P_O_ jtwc_sh SH061989 -16.6000 43.3000 25 -1 -16.6224 43.4149 1 25 -16.6000 43.3000 TC 25 2 201
1989006S15044 1989 3 SI MM CALASANJY 1989-01-07 21:00:00 TS -16.7101 43.3224 main 101 96 P_________P_P_ SH061989 -16.7075 43.3000 25 -1 -16.7153 43.3674 1 25 -16.7075 43.3000 TC 25 2 193
1989006S15044 1989 3 SI MM CALASANJY 1989-01-08 00:00:00 TS -16.8000 43.3000 main 96 96 O_________O_O_ jtwc_sh SH061989 -16.8000 43.3000 25 -1 -16.8000 43.3000 1 25 -16.8000 43.3000 TC 25 2 213
1989006S15044 1989 3 SI MM CALASANJY 1989-01-08 03:00:00 TS -16.8661 43.2206 main 100 100 P_________P_P_ SH061989 -16.8500 43.2225 25 -1 -16.8983 43.2169 1 25 -16.8500 43.2225 TC 25 2 236
1989006S15044 1989 3 SI MM CALASANJY 1989-01-08 06:00:00 TS -16.9291 43.1034 main 108 101 O_________P_O_ jtwc_sh SH061989 -16.9000 43.1000 25 -1 -16.9873 43.1101 1 25 -16.9000 43.1000 TC 25 3 238
1989006S15044 1989 3 SI MM CALASANJY 1989-01-08 09:00:00 TS -17.0192 42.9677 main 110 110 P_________P_P_ SH061989 -17.0000 42.9650 25 -1 -17.0577 42.9732 1 25 -17.0000 42.9650 TC 25 3 240
1989006S15044 1989 3 SI MM CALASANJY 1989-01-08 12:00:00 TS -17.1000 42.8000 main 125 125 O_________O_O_ jtwc_sh SH061989 -17.1000 42.8000 25 -1 -17.1000 42.8000 1 25 -17.1000 42.8000 TC 25 4 247
1989006S15044 1989 3 SI MM CALASANJY 1989-01-08 15:00:00 TS -17.1641 42.6104 main 142 142 P_________P_P_ SH061989 -17.1799 42.6226 25 -1 -17.1323 42.5861 1 25 -17.1799 42.6226 TC 25 4 259
1989006S15044 1989 3 SI MM CALASANJY 1989-01-08 18:00:00 TS -17.1775 42.3793 main 162 162 O_________P_O_ jtwc_sh SH061989 -17.2000 42.4000 25 -1 -17.1326 42.3378 1 25 -17.2000 42.4000 TC 25 5 275
1989006S15044 1989 3 SI MM CALASANJY 1989-01-08 21:00:00 TS -17.1222 42.0952 main 196 196 P_________P_P_ SH061989 -17.1375 42.1075 25 -1 -17.0916 42.0705 1 25 -17.1375 42.1075 TC 25 6 288
1989006S15044 1989 3 SI MM CALASANJY 1989-01-09 00:00:00 TS -17.0000 41.8000 main 208 170 O_________O_O_ jtwc_sh SH061989 -17.0000 41.8000 25 -1 -17.0000 41.8000 1 25 -17.0000 41.8000 TC 25 6 299
1989006S15044 1989 3 SI MM CALASANJY 1989-01-09 03:00:00 TS -16.8200 41.5299 main 170 139 P_________P_P_ SH061989 -16.8149 41.5425 25 -1 -16.8302 41.5048 1 26 -16.8149 41.5425 TC 25 6 311
1989006S15044 1989 3 SI MM CALASANJY 1989-01-09 06:00:00 TS -16.5970 41.3128 24 1000 reunion main 139 108 O____O____P_O_ jtwc_sh SH061989 -16.6000 41.3000 25 -1 -16.5000 41.8000 2 24 1000 2.00000 2.00000 -16.6152 41.2167 1 27 -16.6000 41.3000 TC 25 6 318
1989006S15044 1989 3 SI MM CALASANJY 1989-01-09 09:00:00 TS -16.3815 41.1254 main 108 85 P____P____P_P_ SH061989 -16.3850 41.0199 27 -1 -16.3450 41.8575 2 24 1000 -16.3927 40.9704 1 28 -16.3850 41.0199 TC 27 5 325
1989006S15044 1989 3 SI MM CALASANJY 1989-01-09 12:00:00 TS -16.2000 41.0200 24 1000 reunion main 85 78 O____O____O_O_ jtwc_sh SH061989 -16.2000 40.8000 30 -1 -16.2000 41.9000 2 24 1000 2.00000 2.00000 -16.2000 40.8000 1 30 -16.2000 40.8000 TC 30 3 342
1989006S15044 1989 3 SI MM CALASANJY 1989-01-09 15:00:00 TS -16.0742 41.0141 main 78 72 P____P____P_P_ SH061989 -16.0774 40.6976 32 -1 -16.0775 41.9150 2 24 1000 -16.0645 40.7463 1 32 -16.0774 40.6976 TC 32 2 354
1989006S15044 1989 3 SI MM CALASANJY 1989-01-09 18:00:00 TS -15.9918 41.0170 24 1000 reunion main 72 72 O____O____P_O_ jtwc_sh SH061989 -16.0000 40.7000 35 0 -16.0000 41.9000 2 24 1000 2.00000 2.00000 -15.9673 40.7679 1 35 -16.0000 40.7000 TC 35 1 23
1989006S15044 1989 3 SI MM CALASANJY 1989-01-09 21:00:00 TS -15.9379 41.0683 main 77 77 P____P____P_P_ SH061989 -15.9275 40.7850 37 0 -15.9850 41.8725 2 24 1000 -15.9115 40.8306 1 37 -15.9275 40.7850 TC 37 1 58
1989006S15044 1989 3 SI MM CALASANJY 1989-01-10 00:00:00 TS -15.9250 41.1250 24 1000 reunion main 77 77 O____O____O_O_ jtwc_sh SH061989 -15.9000 40.9000 40 0 -16.0000 41.8000 2 24 1000 2.00000 2.00000 -15.9000 40.9000 2 40 -15.9000 40.9000 TC 40 1 95
1989006S15044 1989 3 SI MM CALASANJY 1989-01-10 03:00:00 TS -15.9428 41.1254 main 77 77 P____P____P_P_ SH061989 -15.9275 40.9650 42 0 -15.9925 41.6425 2 24 1000 -15.9238 40.9290 2 41 -15.9275 40.9650 TC 42 1 0
1989006S15044 1989 3 SI MM CALASANJY 1989-01-10 06:00:00 TS -15.9975 41.1144 24 1000 reunion main 82 82 O____O____P_O_ jtwc_sh SH061989 -16.0000 41.0000 45 0 -16.0000 41.5000 2 24 1000 2.00000 2.00000 -15.9900 40.9575 2 42 -16.0000 41.0000 TC 45 1 172
1989006S15044 1989 3 SI MM CALASANJY 1989-01-10 09:00:00 TS -16.0728 41.1318 main 87 87 P____P____P_P_ SH061989 -16.0925 41.0150 45 0 -16.0199 41.5149 2 30 995 -16.0863 40.9822 2 43 -16.0925 41.0150 TC 45 2 0
1989006S15044 1989 3 SI MM CALASANJY 1989-01-10 12:00:00 TS -16.1750 41.1250 36 991 reunion main 93 92 O____O____O_O_ jtwc_sh SH061989 -16.2000 41.0000 45 0 -16.1000 41.5000 3 36 991 3.00000 3.00000 -16.2000 41.0000 2 45 -16.2000 41.0000 TC 45 2 204
1989006S15044 1989 3 SI MM CALASANJY 1989-01-10 15:00:00 TS -16.2925 41.0316 main 92 92 P____P____P_P_ SH061989 -16.2925 40.9425 45 0 -16.2701 41.2502 3 36 991 -16.3147 40.9910 2 46 -16.2925 40.9425 TC 45 3 213
1989006S15044 1989 3 SI MM CALASANJY 1989-01-10 18:00:00 TS -16.4356 40.9444 36 991 reunion main 92 92 O____O____P_O_ jtwc_sh SH061989 -16.4000 40.9000 45 0 -16.5000 41.0000 3 36 991 3.00000 3.00000 -16.4425 40.9776 2 47 -16.4000 40.9000 TC 45 3 193
1989006S15044 1989 3 SI MM CALASANJY 1989-01-10 21:00:00 TS -16.6097 40.9463 main 105 105 P____P____P_P_ SH061989 -16.5500 40.9275 47 0 -16.7649 40.9549 3 36 991 -16.5740 40.9754 2 48 -16.5500 40.9275 TC 47 3 170
1989006S15044 1989 3 SI MM CALASANJY 1989-01-11 00:00:00 TS -16.7750 41.0000 36 991 reunion main 126 126 O____O____O_O_ jtwc_sh SH061989 -16.7000 41.0000 50 0 -17.0000 41.0000 3 36 991 3.00000 3.00000 -16.7000 41.0000 2 50 -16.7000 41.0000 TC 50 3 156
1989006S15044 1989 3 SI MM CALASANJY 1989-01-11 03:00:00 TS -16.8907 41.0750 main 141 141 P____P____P_P_ SH061989 -16.8075 41.0925 52 0 -17.1300 41.0425 3 40 987 -16.8179 41.0727 2 52 -16.8075 41.0925 TC 52 3 142
1989006S15044 1989 3 SI MM CALASANJY 1989-01-11 06:00:00 TS -16.9818 41.1682 44 984 reunion main 156 156 O____O____P_O_ jtwc_sh SH061989 -16.9000 41.2000 55 0 -17.2000 41.1000 3 44 984 3.50000 3.50000 -16.9273 41.1726 2 55 -16.9000 41.2000 TC 55 3 136
1989006S15044 1989 3 SI MM CALASANJY 1989-01-11 09:00:00 TS -17.0739 41.2591 main 171 171 P____P____P_P_ SH061989 -17.0075 41.3000 57 0 -17.2575 41.1500 3 44 984 -17.0230 41.2863 2 57 -17.0075 41.3000 TC 57 2 134
1989006S15044 1989 3 SI MM CALASANJY 1989-01-11 12:00:00 TS -17.1500 41.3500 44 984 reunion main 180 180 O____O____O_O_ jtwc_sh SH061989 -17.1000 41.4000 60 0 -17.3000 41.2000 3 44 984 3.50000 3.50000 -17.1000 41.4000 2 60 -17.1000 41.4000 TC 60 2 127
1989006S15044 1989 3 SI MM CALASANJY 1989-01-11 15:00:00 TS -17.2050 41.4433 main 186 186 P____P____P_P_ SH061989 -17.1575 41.5075 62 0 -17.3500 41.2500 3 44 984 -17.1549 41.5082 2 62 -17.1575 41.5075 TC 62 2 121
1989006S15044 1989 3 SI MM CALASANJY 1989-01-11 18:00:00 TS -17.2500 41.5250 44 984 reunion main 195 195 O____O____O_O_ jtwc_sh SH061989 -17.2000 41.6000 65 1 -17.4000 41.3000 3 44 984 3.50000 3.50000 -17.2000 41.6000 3 65 -17.2000 41.6000 TC 65 2 129
1989006S15044 1989 3 SI MM CALASANJY 1989-01-11 21:00:00 TS -17.3043 41.5758 main 210 210 P____P____P_P_ SH061989 -17.2575 41.6500 65 1 -17.4500 41.3500 3 44 984 -17.2524 41.6533 3 65 -17.2575 41.6500 TC 65 1 137
1989006S15044 1989 3 SI MM CALASANJY 1989-01-12 00:00:00 TS -17.3500 41.6250 44 984 reunion main 210 210 O____O____O_O_ jtwc_sh SH061989 -17.3000 41.7000 65 1 -17.5000 41.4000 3 44 984 3.50000 3.50000 -17.3000 41.7000 4 65 -17.3000 41.7000 TC 65 1 118
1989006S15044 1989 3 SI MM CALASANJY 1989-01-12 03:00:00 TS -17.3666 41.7010 main 225 223 P____P____P_P_ SH061989 -17.3000 41.7925 65 1 -17.5350 41.4350 3 48 980 -17.3314 41.7838 4 66 -17.3000 41.7925 TC 65 2 103
1989006S15044 1989 3 SI MM CALASANJY 1989-01-12 06:00:00 TS -17.3884 41.7966 52 976 reunion main 223 212 O____O____P_O_ jtwc_sh SH061989 -17.3000 41.9000 65 1 -17.6000 41.5000 3 52 976 4.00000 4.00000 -17.3534 41.8864 4 67 -17.3000 41.9000 TC 65 2 113
1989006S15044 1989 3 SI MM CALASANJY 1989-01-12 09:00:00 TS -17.4522 41.9133 main 212 201 P____P____P_P_ SH061989 -17.3425 42.0075 67 1 -17.7500 41.6424 3 57 971 -17.3737 41.9958 4 68 -17.3425 42.0075 TC 67 3 122
1989006S15044 1989 3 SI MM CALASANJY 1989-01-12 12:00:00 TS -17.5250 42.0250 62 966 reunion main 201 190 O____O____O_O_ jtwc_sh SH061989 -17.4000 42.1000 70 1 -17.9000 41.8000 3 62 966 4.50000 4.50000 -17.4000 42.1000 4 70 -17.4000 42.1000 TC 70 2 125
1989006S15044 1989 3 SI MM CALASANJY 1989-01-12 15:00:00 TS -17.5769 42.0993 main 191 180 P____P____P_P_ SH061989 -17.4500 42.1500 72 1 -17.9650 41.9150 3 62 966 -17.4428 42.1822 4 71 -17.4500 42.1500 TC 72 2 127
1989006S15044 1989 3 SI MM CALASANJY 1989-01-12 18:00:00 TS -17.6231 42.1644 62 966 reunion main 180 180 O____O____P_O_ jtwc_sh SH061989 -17.5000 42.2000 75 1 -18.0000 42.0000 3 62 966 4.50000 4.50000 -17.4925 42.2575 4 72 -17.5000 42.2000 TC 75 2 127
1989006S15044 1989 3 SI MM CALASANJY 1989-01-12 21:00:00 TS -17.6740 42.2373 main 181 171 P____P____P_P_ SH061989 -17.5500 42.2925 75 1 -18.0500 42.0350 3 62 966 -17.5459 42.3291 4 73 -17.5500 42.2925 TC 75 2 123
1989006S15044 1989 3 SI MM CALASANJY 1989-01-13 00:00:00 TS -17.7250 42.3250 62 966 reunion main 171 160 O____O____O_O_ jtwc_sh SH061989 -17.6000 42.4000 75 1 -18.1000 42.1000 3 62 966 4.50000 4.50000 -17.6000 42.4000 4 75 -17.6000 42.4000 TC 75 2 115
1989006S15044 1989 3 SI MM CALASANJY 1989-01-13 03:00:00 TS -17.7672 42.4389 main 162 141 P____P____P_P_ SH061989 -17.6500 42.5075 75 1 -18.1350 42.2775 3 62 966 -17.6337 42.4629 4 75 -17.6500 42.5075 TC 75 2 113
1989006S15044 1989 3 SI MM CALASANJY 1989-01-13 06:00:00 TS -17.8175 42.5569 62 966 reunion main 141 134 O____O____P_O_ jtwc_sh SH061989 -17.7000 42.6000 75 1 -18.2000 42.5000 3 62 966 4.50000 4.50000 -17.6699 42.5277 4 75 -17.7000 42.6000 TC 75 2 121
1989006S15044 1989 3 SI MM CALASANJY 1989-01-13 09:00:00 TS -17.8909 42.6565 main 134 134 P____P____P_P_ SH061989 -17.7500 42.6575 75 1 -18.3425 42.7074 3 62 966 -17.7212 42.6036 4 75 -17.7500 42.6575 TC 75 2 130
1989006S15044 1989 3 SI MM CALASANJY 1989-01-13 12:00:00 TS -17.9750 42.7500 62 966 reunion main 126 126 O____O____O_O_ jtwc_sh SH061989 -17.8000 42.7000 75 1 -18.5000 42.9000 3 62 966 4.50000 4.50000 -17.8000 42.7000 4 75 -17.8000 42.7000 TC 75 2 133
1989006S15044 1989 3 SI MM CALASANJY 1989-01-13 15:00:00 TS -18.0360 42.8238 main 126 116 P____P____P_P_ SH061989 -17.8199 42.7201 75 1 -18.6074 43.0426 3 62 966 -17.8968 42.8124 4 75 -17.8199 42.7201 TC 75 2 131
1989006S15044 1989 3 SI MM CALASANJY 1989-01-13 18:00:00 TS -18.1312 42.9370 62 966 reunion main 116 95 O____O____P_O_ jtwc_sh SH061989 -17.9000 42.8000 75 1 -18.7000 43.2000 3 62 966 4.50000 4.50000 -18.0249 42.9479 4 75 -17.9000 42.8000 TC 75 4 131
1989006S15044 1989 3 SI MM CALASANJY 1989-01-13 21:00:00 TS -18.3095 43.1498 main 95 64 P____P____P_P_ SH061989 -18.1201 43.0199 75 1 -18.8076 43.4500 3 67 960 -18.1905 43.1094 4 75 -18.1201 43.0199 TC 75 6 132
1989006S15044 1989 3 SI MM CALASANJY 1989-01-14 00:00:00 TS -18.5250 43.4000 72 954 reunion main 64 53 O____O____O_O_ jtwc_sh SH061989 -18.4000 43.3000 75 1 -18.9000 43.7000 4 72 954 5.00000 5.00000 -18.4000 43.3000 4 75 -18.4000 43.3000 TC 75 6 132
1989006S15044 1989 3 SI MM CALASANJY 1989-01-14 03:00:00 TS -18.7081 43.6183 main 53 42 P____P____P_P_ SH061989 -18.6350 43.5501 75 1 -18.8973 43.8279 4 72 954 -18.6653 43.5451 4 75 -18.6350 43.5501 TC 75 6 134
1989006S15044 1989 3 SI MM CALASANJY 1989-01-14 06:00:00 TS -18.9426 43.8535 72 954 reunion main 31 15 O____O____P_O_ jtwc_sh SH061989 -18.9000 43.8000 75 1 -19.0000 44.0000 4 72 954 5.00000 5.00000 -18.9704 43.8142 4 75 -18.9000 43.8000 TC 75 8 139
1989006S15044 1989 3 SI MM CALASANJY 1989-01-14 09:00:00 TS -19.2914 44.1570 main 15 10 P____P____P_P_ SH061989 -19.2350 44.0649 75 1 -19.4054 44.4216 4 72 954 -19.2903 44.0763 4 75 -19.2350 44.0649 TC 75 9 144
1989006S15044 1989 3 SI MM CALASANJY 1989-01-14 12:00:00 TS -19.6750 44.4250 72 954 reunion main 10 0 O____O____O_O_ jtwc_sh SH061989 -19.6000 44.3000 75 1 -19.9000 44.8000 4 72 954 5.00000 5.00000 -19.6000 44.3000 4 75 -19.6000 44.3000 TC 75 8 152
1989006S15044 1989 3 SI MM CALASANJY 1989-01-14 15:00:00 TS -20.0238 44.5721 main 0 0 P____P____P_P_ SH061989 -19.9800 44.4800 70 1 -20.2873 44.8605 4 62 965 -19.8480 44.4677 4 66 -19.9800 44.4800 TC 60 7 162
1989006S15044 1989 3 SI MM CALASANJY 1989-01-14 18:00:00 TS -20.3212 44.6475 52 976 reunion main 0 0 O____O____P_O_ jtwc_sh SH061989 -20.3000 44.6000 65 1 -20.6000 44.8000 3 52 976 4.00000 4.00000 -20.0848 44.5902 4 57 -20.3000 44.6000 TC 45 5 166
1989006S15044 1989 3 SI MM CALASANJY 1989-01-14 21:00:00 TS -20.5167 44.7032 main 0 0 P____P____P_P_ SH061989 -20.4725 44.6651 52 0 -20.7925 44.8149 3 48 980 -20.3293 44.6675 4 48 -20.4725 44.6651 TC 37 4 168
1989006S15044 1989 3 SI MM CALASANJY 1989-01-15 00:00:00 TS -20.7143 44.7286 44 984 reunion main 0 0 O____O____O_O_ jtwc_sh SH061989 -20.6000 44.7000 40 0 -21.0000 44.8000 3 44 984 3.50000 3.50000 -20.6000 44.7000 2 40 -20.6000 44.7000 TC 30 5 175
1989006S15044 1989 3 SI MM CALASANJY 1989-01-15 03:00:00 TS -21.0441 44.7335 main 0 0 P____P____P_P_ SH061989 -20.7800 44.7449 35 0 -21.4150 44.7301 3 40 987 -20.9373 44.7255 2 37 -20.7800 44.7449 TC 27 7 183
1989006S15044 1989 3 SI MM CALASANJY 1989-01-15 06:00:00 TS -21.4399 44.6819 36 991 reunion main 0 0 O____O____P_O_ jtwc_sh SH061989 -21.0000 44.8000 30 -1 -21.8000 44.6000 3 36 991 3.00000 3.00000 -21.2997 44.7048 2 35 -21.0000 44.8000 TC 25 8 195
1989006S15044 1989 3 SI MM CALASANJY 1989-01-15 09:00:00 TS -21.8037 44.5158 main 0 0 _____P____P___ SH061989 -1 -21.9451 44.3999 3 36 991 -21.6623 44.6317 2 32 TC 6 209
1989006S15044 1989 3 SI MM CALASANJY 1989-01-15 12:00:00 TS -22.0000 44.3500 36 991 reunion main 0 0 _____O____O___ -1 -22.0000 44.2000 3 36 991 3.00000 3.00000 -22.0000 44.5000 1 30 5 218
1989006S15044 1989 3 SI MM CALASANJY 1989-01-15 15:00:00 TS -22.1781 44.2063 main 0 0 _____P____P___ -1 -22.0775 44.0849 3 36 991 -22.2787 44.3277 1 30 5 217
1989006S15044 1989 3 SI MM CALASANJY 1989-01-15 18:00:00 TS -22.3649 44.0486 36 991 reunion main 0 0 _____O____P___ -1 -22.2000 44.0000 3 36 991 3.00000 3.00000 -22.5298 44.0972 1 30 5 216
1989006S15044 1989 3 SI MM CALASANJY 1989-01-15 21:00:00 TS -22.6042 43.8703 main 0 0 _____P____P___ -1 -22.4424 43.9225 3 32 994 -22.7661 43.8181 1 30 6 217
1989006S15044 1989 3 SI MM CALASANJY 1989-01-16 00:00:00 TS -22.8500 43.6500 28 997 reunion main 0 0 _____O____O___ -1 -22.7000 43.8000 3 28 997 2.50000 2.50000 -23.0000 43.5000 1 30 6 226
1989006S15044 1989 3 SI MM CALASANJY 1989-01-16 03:00:00 TS -23.0218 43.4046 main 15 15 _____P____P___ -1 -22.8348 43.6095 3 28 997 -23.2087 43.1996 1 28 6 235
1989006S15044 1989 3 SI MM CALASANJY 1989-01-16 06:00:00 TS -23.2119 43.0797 28 997 reunion main 51 51 _____O____P___ -1 -23.0000 43.3000 3 28 997 2.50000 2.50000 -23.4238 42.8593 1 27 8 236
1989006S15044 1989 3 SI MM CALASANJY 1989-01-16 09:00:00 TS -23.4949 42.6473 main 104 104 _____P____P___ -1 -23.3127 42.8302 3 28 997 -23.6771 42.4645 1 26 11 233
1989006S15044 1989 3 SI MM CALASANJY 1989-01-16 12:00:00 ET -23.8500 42.1500 28 997 reunion main 142 144 _____O____O___ -1 -23.7000 42.3000 5 28 997 2.50000 2.50000 -24.0000 42.0000 1 25 12 230
1989006S15044 1989 3 SI MM CALASANJY 1989-01-16 15:00:00 ET -24.2570 41.6564 main 203 203 _____P____P___ -1 -24.0997 41.8572 5 28 997 -24.4143 41.4557 1 25 13 228
1989006S15044 1989 3 SI MM CALASANJY 1989-01-16 18:00:00 ET -24.7016 41.1223 28 997 reunion main 271 271 _____O____P___ -1 -24.5000 41.4000 5 28 997 2.50000 2.50000 -24.9032 40.8445 1 25 14 229
1989006S15044 1989 3 SI MM CALASANJY 1989-01-16 21:00:00 ET -25.1518 40.5295 main 339 339 _____P____P___ -1 -24.8631 40.8732 5 26 998 -25.4405 40.1859 1 25 14 231
1989006S15044 1989 3 SI MM CALASANJY 1989-01-17 00:00:00 ET -25.6000 39.9000 24 1000 reunion main 408 _____O____O___ -1 -25.2000 40.3000 5 24 1000 2.00000 2.00000 -26.0000 39.5000 1 25 15 232

About IBTrACS Database

This database is a web-friendly format of International Best Track Archive for Climate Stewardship (IBTrACS), a global best track data archive curated by NOAA dating back to 1842.

Updated: 2021-10-21